createdAt,value
2019-05-26T00:00:31.567Z,8.07
2019-05-26T00:02:59.956Z,5.63
2019-05-26T00:05:28.142Z,7.23
2019-05-26T00:07:56.303Z,9.60
2019-05-26T00:10:25.689Z,4.77
2019-05-26T00:12:55.477Z,6.10
2019-05-26T00:15:23.651Z,6.27
2019-05-26T00:17:51.832Z,5.20
2019-05-26T00:20:19.945Z,8.07
2019-05-26T00:22:48.129Z,7.80
2019-05-26T00:25:16.730Z,5.90
2019-05-26T00:27:45.042Z,5.90
2019-05-26T00:30:13.765Z,10.07
2019-05-26T00:32:41.897Z,7.33
2019-05-26T00:35:10.617Z,8.00
2019-05-26T00:37:49.227Z,6.70
2019-05-26T00:40:09.669Z,7.23
2019-05-26T00:42:37.875Z,8.10
2019-05-26T00:45:06.385Z,7.90
2019-05-26T00:47:34.491Z,7.47
2019-05-26T00:50:03.532Z,8.43
2019-05-26T00:52:31.712Z,10.97
2019-05-26T00:54:59.746Z,10.17
2019-05-26T00:57:27.815Z,10.47
2019-05-26T00:59:56.293Z,5.77
2019-05-26T01:02:24.414Z,8.33
2019-05-26T01:04:52.709Z,7.43
2019-05-26T01:07:20.780Z,8.00
2019-05-26T01:09:49.155Z,9.27
2019-05-26T01:12:17.343Z,8.23
2019-05-26T01:14:45.471Z,6.40
2019-05-26T01:17:13.679Z,11.77
2019-05-26T01:19:41.852Z,8.67
2019-05-26T01:22:10.042Z,8.80
2019-05-26T01:24:38.095Z,9.13
2019-05-26T01:27:06.146Z,8.63
2019-05-26T01:29:34.437Z,11.90
2019-05-26T01:32:02.760Z,8.70
2019-05-26T01:34:31.977Z,8.33
2019-05-26T01:37:00.642Z,9.00
2019-05-26T01:39:28.947Z,6.60
2019-05-26T01:41:56.968Z,8.73
2019-05-26T01:44:25.161Z,8.60
2019-05-26T01:46:53.416Z,7.40
2019-05-26T01:49:21.628Z,9.10
2019-05-26T01:51:49.812Z,9.23
2019-05-26T01:54:18.104Z,7.30
2019-05-26T01:56:46.177Z,10.93
2019-05-26T01:59:14.472Z,8.83
2019-05-26T02:01:42.779Z,8.57
2019-05-26T02:04:10.903Z,7.07
2019-05-26T02:06:38.970Z,8.93
2019-05-26T02:09:08.119Z,7.17
2019-05-26T02:11:36.397Z,7.10
2019-05-26T02:14:04.881Z,8.63
2019-05-26T02:16:32.899Z,8.87
2019-05-26T02:19:01.102Z,9.37
2019-05-26T02:21:29.280Z,7.30
2019-05-26T02:23:57.422Z,8.80
2019-05-26T02:26:25.647Z,7.40
2019-05-26T02:28:53.973Z,8.87
2019-05-26T02:31:22.336Z,7.23
2019-05-26T02:33:50.680Z,6.57
2019-05-26T02:36:18.878Z,6.90
2019-05-26T02:39:01.068Z,10.27
2019-05-26T02:41:18.181Z,6.57
2019-05-26T02:43:46.264Z,6.83
2019-05-26T02:46:14.550Z,10.93
2019-05-26T02:48:42.631Z,8.10
2019-05-26T02:51:10.827Z,8.63
2019-05-26T02:53:38.952Z,9.50
2019-05-26T02:56:07.177Z,8.33
2019-05-26T02:58:35.335Z,6.57
2019-05-26T03:01:03.633Z,7.03
2019-05-26T03:03:31.766Z,8.43
2019-05-26T03:06:01.090Z,7.13
2019-05-26T03:08:29.381Z,8.37
2019-05-26T03:11:00.192Z,8.80
2019-05-26T03:13:32.797Z,7.97
2019-05-26T03:16:03.533Z,9.57
2019-05-26T03:18:35.045Z,13.50
2019-05-26T03:21:04.139Z,6.33
2019-05-26T03:23:32.868Z,6.67
2019-05-26T03:26:02.600Z,8.87
2019-05-26T03:28:30.707Z,8.83
2019-05-26T03:30:58.849Z,10.17
2019-05-26T03:33:28.010Z,10.07
2019-05-26T03:35:56.132Z,7.70
2019-05-26T03:38:24.220Z,8.17
2019-05-26T03:40:52.447Z,8.17
2019-05-26T03:43:20.634Z,8.83
2019-05-26T03:46:18.120Z,10.07
2019-05-26T03:48:46.289Z,8.47
2019-05-26T03:51:14.638Z,12.37
2019-05-26T03:53:43.017Z,9.80
2019-05-26T03:56:11.202Z,10.73
2019-05-26T03:58:39.266Z,11.63
2019-05-26T04:01:07.306Z,11.10
2019-05-26T04:03:35.407Z,13.63
2019-05-26T04:06:03.803Z,10.27
2019-05-26T04:08:32.040Z,10.33
2019-05-26T04:11:00.254Z,10.97
2019-05-26T04:13:28.304Z,10.13
2019-05-26T04:15:56.592Z,11.30
2019-05-26T04:18:25.861Z,10.83
2019-05-26T04:20:54.160Z,10.90
2019-05-26T04:23:22.353Z,12.77
2019-05-26T04:25:50.418Z,12.10
2019-05-26T04:28:18.703Z,10.37
2019-05-26T04:30:46.829Z,11.50
2019-05-26T04:33:15.035Z,10.17
2019-05-26T04:35:43.167Z,12.67
2019-05-26T04:38:11.237Z,10.03
2019-05-26T04:40:39.474Z,11.37
2019-05-26T04:43:07.742Z,10.80
2019-05-26T04:45:36.036Z,9.13
2019-05-26T04:48:04.489Z,11.77
2019-05-26T04:50:32.741Z,9.13
2019-05-26T04:53:06.862Z,10.10
2019-05-26T04:55:31.116Z,10.90
2019-05-26T04:57:59.258Z,10.83
2019-05-26T05:00:27.586Z,11.67
2019-05-26T05:02:55.893Z,9.83
2019-05-26T05:05:24.104Z,12.87
2019-05-26T05:07:52.178Z,11.33
2019-05-26T05:10:20.310Z,16.80
2019-05-26T05:12:48.618Z,13.73
2019-05-26T05:15:16.762Z,10.20
2019-05-26T05:17:44.836Z,10.70
2019-05-26T05:20:13.678Z,12.27
2019-05-26T05:22:41.987Z,9.40
2019-05-26T05:25:14.920Z,11.30
2019-05-26T05:27:40.439Z,10.13
2019-05-26T05:30:10.860Z,12.63
2019-05-26T05:32:39.030Z,10.37
2019-05-26T05:35:08.742Z,10.63
2019-05-26T05:37:36.905Z,12.37
2019-05-26T05:40:06.318Z,10.67
2019-05-26T05:42:34.476Z,10.23
2019-05-26T05:45:02.676Z,10.53
2019-05-26T05:47:30.924Z,10.33
2019-05-26T05:49:59.171Z,10.53
2019-05-26T05:52:27.447Z,10.53
2019-05-26T05:54:55.934Z,9.00
2019-05-26T05:57:24.090Z,10.13
2019-05-26T05:59:53.127Z,11.80
2019-05-26T06:02:21.403Z,11.23
2019-05-26T06:04:49.583Z,13.47
2019-05-26T06:07:17.922Z,10.00
2019-05-26T06:09:45.944Z,11.40
2019-05-26T06:12:13.995Z,9.73
2019-05-26T06:14:42.259Z,11.73
2019-05-26T06:17:10.729Z,10.00
2019-05-26T06:19:39.005Z,10.97
2019-05-26T06:22:07.073Z,11.23
2019-05-26T06:24:35.145Z,10.60
2019-05-26T06:27:03.414Z,10.00
2019-05-26T06:29:31.549Z,9.23
2019-05-26T06:32:00.234Z,12.60
2019-05-26T06:34:31.055Z,9.37
2019-05-26T06:36:59.607Z,10.80
2019-05-26T06:39:27.842Z,13.77
2019-05-26T06:41:56.083Z,11.07
2019-05-26T06:44:24.161Z,11.17
2019-05-26T06:46:52.419Z,10.20
2019-05-26T06:49:21.323Z,11.27
2019-05-26T06:51:50.176Z,12.27
2019-05-26T06:54:18.425Z,11.20
2019-05-26T06:56:49.140Z,11.80
2019-05-26T06:59:17.552Z,13.37
2019-05-26T07:01:45.731Z,11.47
2019-05-26T07:04:13.965Z,12.97
2019-05-26T07:06:42.175Z,13.13
2019-05-26T07:09:10.324Z,13.13
2019-05-26T07:11:54.021Z,13.93
2019-05-26T07:14:08.490Z,13.73
2019-05-26T07:16:38.510Z,10.40
2019-05-26T07:19:06.799Z,12.53
2019-05-26T07:21:34.906Z,13.87
2019-05-26T07:24:03.459Z,13.47
2019-05-26T07:26:31.776Z,12.00
2019-05-26T07:29:00.030Z,11.27
2019-05-26T07:31:28.072Z,13.77
2019-05-26T07:33:56.195Z,14.63
2019-05-26T07:36:24.404Z,13.30
2019-05-26T07:38:52.595Z,13.17
2019-05-26T07:41:20.688Z,13.87
2019-05-26T07:43:48.767Z,15.13
2019-05-26T07:46:16.925Z,11.67
2019-05-26T07:48:45.020Z,19.27
2019-05-26T07:51:13.812Z,12.70
2019-05-26T07:53:42.165Z,18.83
2019-05-26T07:56:10.310Z,12.67
2019-05-26T07:58:38.510Z,14.90
2019-05-26T08:01:06.595Z,12.73
2019-05-26T08:03:34.786Z,14.90
2019-05-26T08:06:03.079Z,10.77
2019-05-26T08:08:31.365Z,11.10
2019-05-26T08:10:59.507Z,14.20
2019-05-26T08:13:28.248Z,11.33
2019-05-26T08:15:56.292Z,11.70
2019-05-26T08:18:25.538Z,10.37
2019-05-26T08:20:54.722Z,10.90
2019-05-26T08:23:22.956Z,11.93
2019-05-26T08:25:51.086Z,13.07
2019-05-26T08:28:19.322Z,11.93
2019-05-26T08:30:47.439Z,10.93
2019-05-26T08:33:15.510Z,14.97
2019-05-26T08:35:43.708Z,14.80
2019-05-26T08:38:12.220Z,10.63
2019-05-26T08:40:40.417Z,13.27
2019-05-26T08:43:08.603Z,13.93
2019-05-26T08:45:37.120Z,12.40
2019-05-26T08:48:05.955Z,11.83
2019-05-26T08:50:34.545Z,12.07
2019-05-26T08:53:03.069Z,12.87
2019-05-26T08:55:31.127Z,15.40
2019-05-26T08:57:59.219Z,13.43
2019-05-26T09:00:27.482Z,14.57
2019-05-26T09:02:55.755Z,13.50
2019-05-26T09:05:24.191Z,13.10
2019-05-26T09:07:52.355Z,13.80
2019-05-26T09:10:21.261Z,13.17
2019-05-26T09:13:00.118Z,13.37
2019-05-26T09:15:20.632Z,18.47
2019-05-26T09:17:48.818Z,15.63
2019-05-26T09:20:17.562Z,12.57
2019-05-26T09:22:45.661Z,13.20
2019-05-26T09:25:14.259Z,14.97
2019-05-26T09:27:42.524Z,12.20
2019-05-26T09:30:11.856Z,13.20
2019-05-26T09:32:40.174Z,16.13
2019-05-26T09:35:45.467Z,13.37
2019-05-26T09:37:56.286Z,15.93
2019-05-26T09:40:24.943Z,14.07
2019-05-26T09:42:53.276Z,12.33
2019-05-26T09:45:21.432Z,20.43
2019-05-26T09:47:49.644Z,16.90
2019-05-26T09:50:18.210Z,17.10
2019-05-26T09:52:46.360Z,17.00
2019-05-26T09:55:15.888Z,17.53
2019-05-26T09:57:44.102Z,18.23
2019-05-26T10:00:16.061Z,16.37
2019-05-26T10:02:43.046Z,21.00
2019-05-26T10:05:12.806Z,13.73
2019-05-26T10:07:41.049Z,16.63
2019-05-26T10:10:10.998Z,17.73
2019-05-26T10:12:39.520Z,16.57
2019-05-26T10:15:08.407Z,19.03
2019-05-26T10:17:36.876Z,19.10
2019-05-26T10:20:06.505Z,17.13
2019-05-26T10:22:34.636Z,17.70
2019-05-26T10:25:03.280Z,26.63
2019-05-26T10:27:31.596Z,21.30
2019-05-26T10:29:59.868Z,18.63
2019-05-26T10:32:27.919Z,18.93
2019-05-26T10:34:56.013Z,19.10
2019-05-26T10:37:24.619Z,20.97
2019-05-26T10:39:52.753Z,21.30
2019-05-26T10:42:20.772Z,20.17
2019-05-26T10:44:48.793Z,22.80
2019-05-26T10:47:16.905Z,21.37
2019-05-26T10:49:44.998Z,20.30
2019-05-26T10:52:13.252Z,22.47
2019-05-26T10:54:41.469Z,22.63
2019-05-26T10:57:10.198Z,20.17
2019-05-26T10:59:38.552Z,24.73
2019-05-26T11:02:06.795Z,25.30
2019-05-26T11:04:35.131Z,23.00
2019-05-26T11:07:03.800Z,22.73
2019-05-26T11:09:32.360Z,25.17
2019-05-26T11:12:00.986Z,27.10
2019-05-26T11:14:29.583Z,26.63
2019-05-26T11:16:57.915Z,29.13
2019-05-26T11:19:26.157Z,29.83
2019-05-26T11:21:54.494Z,29.00
2019-05-26T11:24:22.839Z,30.47
2019-05-26T11:26:51.165Z,29.60
2019-05-26T11:29:19.431Z,31.93
2019-05-26T11:31:47.512Z,27.47
2019-05-26T11:34:15.873Z,28.83
2019-05-26T11:36:44.009Z,29.50
2019-05-26T11:39:12.182Z,26.73
2019-05-26T11:41:40.353Z,29.07
2019-05-26T11:44:17.387Z,24.67
2019-05-26T11:46:38.458Z,29.70
2019-05-26T11:49:06.647Z,30.30
2019-05-26T11:51:34.950Z,22.87
2019-05-26T11:54:03.228Z,22.47
2019-05-26T11:56:32.674Z,22.47
2019-05-26T11:59:00.839Z,22.83
2019-05-26T12:01:29.546Z,19.37
2019-05-26T12:03:57.855Z,19.67
2019-05-26T12:06:26.086Z,19.50
2019-05-26T12:08:54.395Z,17.07
2019-05-26T12:11:22.643Z,17.20
2019-05-26T12:13:50.768Z,17.13
2019-05-26T12:16:18.992Z,16.27
2019-05-26T12:18:47.197Z,17.77
2019-05-26T12:21:15.598Z,16.97
2019-05-26T12:23:44.129Z,16.77
2019-05-26T12:26:12.366Z,16.70
2019-05-26T12:28:40.701Z,17.27
2019-05-26T12:31:09.286Z,18.20
2019-05-26T12:33:37.646Z,17.33
2019-05-26T12:36:06.999Z,16.10
2019-05-26T12:38:37.969Z,20.53
2019-05-26T12:41:06.519Z,15.03
2019-05-26T12:43:35.178Z,17.03
2019-05-26T12:46:04.097Z,15.23
2019-05-26T12:48:32.623Z,14.67
2019-05-26T12:51:00.707Z,15.30
2019-05-26T12:53:28.984Z,14.67
2019-05-26T12:55:57.165Z,13.50
2019-05-26T12:58:25.595Z,13.20
2019-05-26T13:00:55.332Z,15.83
2019-05-26T13:03:24.916Z,14.27
2019-05-26T13:05:53.647Z,12.07
2019-05-26T13:08:21.895Z,13.97
2019-05-26T13:10:50.181Z,11.88
2019-05-26T13:13:18.584Z,13.50
2019-05-26T13:15:46.776Z,12.93
2019-05-26T13:18:15.017Z,11.93
2019-05-26T13:20:43.384Z,15.63
2019-05-26T13:23:12.687Z,14.78
2019-05-26T13:25:40.803Z,11.73
2019-05-26T13:28:09.111Z,11.40
2019-05-26T13:30:37.730Z,11.87
2019-05-26T13:33:05.973Z,12.30
2019-05-26T13:35:34.701Z,11.93
2019-05-26T13:38:03.303Z,10.53
2019-05-26T13:40:31.762Z,10.88
2019-05-26T13:42:59.941Z,10.55
2019-05-26T13:45:33.257Z,11.78
2019-05-26T13:47:58.403Z,13.37
2019-05-26T13:50:26.614Z,11.33
2019-05-26T13:52:54.905Z,12.50
2019-05-26T13:55:23.105Z,10.67
2019-05-26T13:57:51.503Z,12.70
2019-05-26T14:00:22.245Z,13.38
2019-05-26T14:02:50.670Z,15.00
2019-05-26T14:05:18.972Z,12.85
2019-05-26T14:07:47.221Z,11.07
2019-05-26T14:10:33.787Z,12.73
2019-05-26T14:13:02.983Z,9.73
2019-05-26T14:15:37.928Z,13.03
2019-05-26T14:18:03.135Z,10.90
2019-05-26T14:20:36.187Z,12.73
2019-05-26T14:23:05.583Z,10.95
2019-05-26T14:25:34.000Z,10.53
2019-05-26T14:28:02.482Z,9.53
2019-05-26T14:30:31.093Z,10.00
2019-05-26T14:32:59.546Z,8.43
2019-05-26T14:35:28.024Z,9.23
2019-05-26T14:37:56.183Z,9.87
2019-05-26T14:40:24.488Z,8.70
2019-05-26T14:42:52.736Z,8.20
2019-05-26T14:45:21.276Z,8.27
2019-05-26T14:47:49.662Z,10.00
2019-05-26T14:50:18.849Z,8.33
2019-05-26T14:52:47.057Z,12.07
2019-05-26T14:55:15.812Z,8.75
2019-05-26T14:57:44.233Z,9.17
2019-05-26T15:00:13.273Z,6.97
2019-05-26T15:02:41.573Z,7.77
2019-05-26T15:05:10.011Z,10.23
2019-05-26T15:07:38.266Z,12.23
2019-05-26T15:10:07.304Z,11.33
2019-05-26T15:12:35.516Z,10.27
2019-05-26T15:15:05.473Z,9.15
2019-05-26T15:17:33.757Z,9.20
2019-05-26T15:20:02.033Z,8.70
2019-05-26T15:22:33.311Z,10.30
2019-05-26T15:25:01.705Z,12.20
2019-05-26T15:27:29.931Z,8.50
2019-05-26T15:29:58.659Z,9.50
2019-05-26T15:32:27.196Z,7.90
2019-05-26T15:34:55.270Z,10.33
2019-05-26T15:37:23.418Z,8.53
2019-05-26T15:39:51.529Z,7.83
2019-05-26T15:42:19.754Z,10.60
2019-05-26T15:44:48.243Z,8.20
2019-05-26T15:47:16.560Z,9.38
2019-05-26T15:49:44.866Z,8.37
2019-05-26T15:52:32.554Z,12.60
2019-05-26T15:55:00.757Z,13.00
2019-05-26T15:57:28.936Z,9.37
2019-05-26T15:59:57.072Z,7.83
2019-05-26T16:02:25.196Z,8.88
2019-05-26T16:04:53.525Z,11.50
2019-05-26T16:07:21.574Z,8.83
2019-05-26T16:09:50.129Z,10.07
2019-05-26T16:12:18.895Z,9.88
2019-05-26T16:14:47.320Z,11.30
2019-05-26T16:17:15.849Z,10.63
2019-05-26T16:19:44.316Z,8.87
2019-05-26T16:22:12.489Z,9.10
2019-05-26T16:24:40.740Z,9.27
2019-05-26T16:27:18.856Z,8.73
2019-05-26T16:29:39.032Z,10.25
2019-05-26T16:32:07.785Z,9.30
2019-05-26T16:34:35.893Z,11.10
2019-05-26T16:37:04.284Z,11.20
2019-05-26T16:39:37.001Z,7.67
2019-05-26T16:42:02.680Z,9.43
2019-05-26T16:44:31.267Z,8.98
2019-05-26T16:46:59.609Z,8.80
2019-05-26T16:49:28.066Z,8.80
2019-05-26T16:51:56.264Z,11.23
2019-05-26T16:54:24.800Z,10.43
2019-05-26T16:56:52.935Z,15.07
2019-05-26T16:59:22.136Z,11.60
2019-05-26T17:01:50.453Z,16.00
2019-05-26T17:04:18.803Z,14.17
2019-05-26T17:06:46.938Z,11.80
2019-05-26T17:09:15.246Z,13.80
2019-05-26T17:11:43.547Z,13.50
2019-05-26T17:14:12.012Z,13.03
2019-05-26T17:16:40.306Z,15.17
2019-05-26T17:19:08.666Z,14.57
2019-05-26T17:21:37.100Z,15.47
2019-05-26T17:24:05.321Z,13.67
2019-05-26T17:26:33.456Z,14.60
2019-05-26T17:29:01.665Z,15.83
2019-05-26T17:31:29.787Z,14.83
2019-05-26T17:33:57.919Z,15.73
2019-05-26T17:36:26.252Z,16.37
2019-05-26T17:38:54.770Z,18.03
2019-05-26T17:41:23.086Z,18.73
2019-05-26T17:43:51.350Z,15.33
2019-05-26T17:46:19.482Z,19.43
2019-05-26T17:48:47.566Z,16.00
2019-05-26T17:51:15.720Z,17.67
2019-05-26T17:53:43.855Z,16.93
2019-05-26T17:56:12.089Z,19.10
2019-05-26T17:58:40.369Z,16.53
2019-05-26T18:01:08.458Z,16.60
2019-05-26T18:03:37.082Z,16.47
2019-05-26T18:06:05.657Z,17.27
2019-05-26T18:08:36.441Z,17.50
2019-05-26T18:11:04.357Z,20.97
2019-05-26T18:13:32.741Z,18.93
2019-05-26T18:16:02.522Z,20.17
2019-05-26T18:18:30.979Z,19.83
2019-05-26T18:20:59.127Z,19.50
2019-05-26T18:23:27.831Z,23.33
2019-05-26T18:25:56.259Z,20.17
2019-05-26T18:28:24.451Z,21.03
2019-05-26T18:30:52.543Z,20.43
2019-05-26T18:33:20.924Z,19.23
2019-05-26T18:35:50.052Z,22.50
2019-05-26T18:38:18.246Z,19.83
2019-05-26T18:40:46.340Z,22.93
2019-05-26T18:43:14.479Z,19.63
2019-05-26T18:45:42.534Z,12.73
2019-05-26T18:48:10.878Z,11.60
2019-05-26T18:50:38.969Z,11.40
2019-05-26T18:53:07.113Z,13.27
2019-05-26T18:55:35.306Z,16.43
2019-05-26T18:58:03.456Z,12.33
2019-05-26T19:00:32.043Z,9.00
2019-05-26T19:03:00.156Z,8.93
2019-05-26T19:05:33.924Z,8.63
2019-05-26T19:07:58.446Z,10.20
2019-05-26T19:10:26.730Z,10.77
2019-05-26T19:12:54.846Z,9.30
2019-05-26T19:15:23.024Z,6.97
2019-05-26T19:17:51.005Z,6.90
2019-05-26T19:20:19.410Z,6.80
2019-05-26T19:22:47.579Z,6.00
2019-05-26T19:25:15.837Z,7.80
2019-05-26T19:27:43.945Z,6.93
2019-05-26T19:30:12.737Z,8.60
2019-05-26T19:32:40.993Z,7.57
2019-05-26T19:35:09.679Z,9.93
2019-05-26T19:37:39.021Z,6.47
2019-05-26T19:40:09.089Z,5.80
2019-05-26T19:42:37.772Z,6.87
2019-05-26T19:45:06.575Z,6.27
2019-05-26T19:47:34.879Z,6.10
2019-05-26T19:50:05.246Z,6.33
2019-05-26T19:52:33.442Z,6.97
2019-05-26T19:55:01.455Z,8.43
2019-05-26T19:57:29.689Z,8.07
2019-05-26T19:59:58.067Z,6.43
2019-05-26T20:02:26.211Z,6.70
2019-05-26T20:04:54.354Z,6.57
2019-05-26T20:07:22.941Z,6.10
2019-05-26T20:09:51.209Z,6.67
2019-05-26T20:12:19.503Z,7.57
2019-05-26T20:14:47.656Z,9.27
2019-05-26T20:17:15.864Z,7.83
2019-05-26T20:19:44.074Z,9.70
2019-05-26T20:22:12.495Z,8.93
2019-05-26T20:24:40.687Z,8.77
2019-05-26T20:27:08.830Z,8.13
2019-05-26T20:29:36.983Z,7.87
2019-05-26T20:32:05.173Z,10.43
2019-05-26T20:34:33.317Z,9.33
2019-05-26T20:37:01.424Z,9.53
2019-05-26T20:39:29.538Z,9.00
2019-05-26T20:41:57.693Z,9.40
2019-05-26T20:44:26.127Z,10.53
2019-05-26T20:46:56.869Z,10.80
2019-05-26T20:49:25.146Z,11.70
2019-05-26T20:51:53.279Z,10.47
2019-05-26T20:54:21.393Z,9.97
2019-05-26T20:56:49.435Z,10.43
2019-05-26T20:59:17.774Z,11.23
2019-05-26T21:01:45.857Z,12.93
2019-05-26T21:04:13.917Z,12.17
2019-05-26T21:06:42.034Z,14.70
2019-05-26T21:09:11.304Z,12.07
2019-05-26T21:11:39.723Z,13.47
2019-05-26T21:14:07.993Z,13.20
2019-05-26T21:16:36.227Z,14.10
2019-05-26T21:19:04.463Z,17.40
2019-05-26T21:21:32.689Z,16.73
2019-05-26T21:24:01.837Z,14.70
2019-05-26T21:26:29.919Z,14.97
2019-05-26T21:29:00.031Z,15.90
2019-05-26T21:31:28.453Z,16.73
2019-05-26T21:33:58.051Z,16.97
2019-05-26T21:36:26.326Z,17.53
2019-05-26T21:38:54.825Z,19.13
2019-05-26T21:41:23.151Z,16.23
2019-05-26T21:43:51.471Z,19.10
2019-05-26T21:46:19.975Z,18.63
2019-05-26T21:48:49.815Z,17.27
2019-05-26T21:51:18.060Z,16.93
2019-05-26T21:53:46.444Z,16.80
2019-05-26T21:56:14.558Z,18.10
2019-05-26T21:58:42.780Z,16.67
2019-05-26T22:01:10.943Z,15.13
2019-05-26T22:03:39.386Z,15.90
2019-05-26T22:06:07.565Z,16.60
2019-05-26T22:08:35.690Z,14.87
2019-05-26T22:11:04.220Z,12.63
2019-05-26T22:13:32.372Z,12.93
2019-05-26T22:16:00.580Z,13.00
2019-05-26T22:18:28.747Z,13.93
2019-05-26T22:20:56.915Z,11.03
2019-05-26T22:23:25.457Z,11.30
2019-05-26T22:25:58.755Z,10.90
2019-05-26T22:28:29.382Z,12.90
2019-05-26T22:30:59.412Z,12.63
2019-05-26T22:33:30.108Z,12.17
2019-05-26T22:35:58.665Z,12.50
2019-05-26T22:38:27.212Z,11.30
2019-05-26T22:40:55.986Z,12.50
2019-05-26T22:43:24.905Z,7.70
2019-05-26T22:45:53.249Z,10.23
2019-05-26T22:48:21.455Z,8.90
2019-05-26T22:50:49.512Z,7.70
2019-05-26T22:53:17.739Z,8.40
2019-05-26T22:55:45.791Z,5.93
2019-05-26T22:58:14.025Z,7.13
2019-05-26T23:00:42.309Z,6.47
2019-05-26T23:03:10.462Z,8.90
2019-05-26T23:05:38.846Z,5.63
2019-05-26T23:08:07.033Z,7.93
2019-05-26T23:10:35.327Z,5.90
2019-05-26T23:13:03.613Z,5.27
2019-05-26T23:15:31.866Z,8.73
2019-05-26T23:17:59.944Z,5.17
2019-05-26T23:20:28.203Z,6.57
2019-05-26T23:22:56.340Z,5.30
2019-05-26T23:25:24.505Z,4.77
2019-05-26T23:27:52.544Z,4.27
2019-05-26T23:30:20.823Z,4.27
2019-05-26T23:32:49.936Z,5.70
2019-05-26T23:35:18.184Z,4.43
2019-05-26T23:37:46.302Z,4.60
2019-05-26T23:40:14.842Z,4.90
2019-05-26T23:42:43.004Z,5.03
2019-05-26T23:45:11.339Z,5.07
2019-05-26T23:47:39.605Z,4.40
2019-05-26T23:50:08.057Z,5.63
2019-05-26T23:52:36.138Z,4.60
2019-05-26T23:55:04.982Z,5.20
2019-05-26T23:57:33.230Z,5.73
